createdAt,value
2022-07-27T00:01:57.352Z,15.88
2022-07-27T00:04:46.678Z,13.77
2022-07-27T00:07:34.624Z,14.18
2022-07-27T00:10:18.957Z,16.30
2022-07-27T00:13:07.672Z,13.70
2022-07-27T00:15:56.739Z,15.48
2022-07-27T00:18:44.653Z,14.93
2022-07-27T00:21:27.728Z,15.15
2022-07-27T00:24:16.608Z,17.05
2022-07-27T00:26:58.821Z,16.25
2022-07-27T00:29:46.615Z,15.90
2022-07-27T00:32:28.879Z,17.08
2022-07-27T00:35:17.644Z,15.38
2022-07-27T00:37:59.976Z,15.02
2022-07-27T00:40:47.638Z,16.10
2022-07-27T00:43:36.626Z,14.63
2022-07-27T00:46:18.453Z,13.82
2022-07-27T00:49:07.770Z,14.40
2022-07-27T00:51:49.868Z,13.85
2022-07-27T00:54:38.632Z,13.45
2022-07-27T00:57:27.631Z,14.30
2022-07-27T01:00:09.935Z,14.13
2022-07-27T01:02:57.873Z,13.40
2022-07-27T01:05:42.405Z,14.80
2022-07-27T01:08:31.612Z,13.25
2022-07-27T01:11:13.939Z,13.07
2022-07-27T01:14:01.628Z,14.65
2022-07-27T01:16:50.600Z,14.60
2022-07-27T01:19:38.936Z,13.90
2022-07-27T01:22:20.631Z,14.45
2022-07-27T01:25:08.627Z,15.02
2022-07-27T01:27:51.100Z,13.93
2022-07-27T01:30:38.609Z,15.10
2022-07-27T01:33:33.630Z,13.90
2022-07-27T01:36:15.243Z,15.30
2022-07-27T01:39:04.648Z,14.50
2022-07-27T01:41:53.626Z,15.02
2022-07-27T01:44:42.657Z,16.35
2022-07-27T01:47:24.263Z,16.58
2022-07-27T01:50:19.610Z,17.25
2022-07-27T01:53:01.292Z,16.77
2022-07-27T01:55:50.616Z,17.58
2022-07-27T01:58:32.268Z,16.63
2022-07-27T02:01:21.634Z,15.18
2022-07-27T02:04:09.928Z,16.50
2022-07-27T02:06:51.625Z,17.00
2022-07-27T02:09:33.255Z,14.98
2022-07-27T02:12:40.633Z,16.13
2022-07-27T02:15:42.970Z,16.38
2022-07-27T02:18:33.628Z,17.17
2022-07-27T02:21:24.612Z,15.77
2022-07-27T02:24:05.916Z,15.40
2022-07-27T02:26:53.618Z,16.10
2022-07-27T02:29:34.882Z,15.73
2022-07-27T02:32:22.689Z,16.17
2022-07-27T02:35:10.108Z,15.38
2022-07-27T02:38:07.607Z,16.60
2022-07-27T02:40:56.634Z,15.70
2022-07-27T02:43:38.354Z,16.38
2022-07-27T02:46:27.724Z,17.30
2022-07-27T02:49:09.563Z,17.80
2022-07-27T02:52:05.636Z,17.02
2022-07-27T02:54:47.284Z,16.92
2022-07-27T02:57:36.639Z,18.08
2022-07-27T03:00:25.615Z,17.27
2022-07-27T03:03:14.641Z,18.40
2022-07-27T03:06:02.824Z,17.67
2022-07-27T03:08:44.619Z,17.77
2022-07-27T03:11:26.362Z,17.63
2022-07-27T03:14:14.600Z,17.83
2022-07-27T03:16:57.343Z,17.63
2022-07-27T03:19:46.628Z,17.90
2022-07-27T03:22:34.817Z,16.92
2022-07-27T03:25:17.599Z,18.05
2022-07-27T03:30:41.703Z,16.90
2022-07-27T03:33:23.893Z,16.20
2022-07-27T03:36:12.629Z,15.73
2022-07-27T03:38:53.930Z,16.08
2022-07-27T03:41:41.636Z,16.15
2022-07-27T03:44:22.894Z,15.88
2022-07-27T03:47:10.615Z,16.85
2022-07-27T03:49:53.945Z,17.48
2022-07-27T03:52:49.643Z,16.38
2022-07-27T03:55:31.493Z,16.42
2022-07-27T03:58:20.623Z,16.70
2022-07-27T04:01:08.942Z,16.13
2022-07-27T04:03:50.631Z,15.52
2022-07-27T04:06:32.267Z,16.48
2022-07-27T04:09:20.635Z,23.08
2022-07-27T04:12:03.452Z,16.23
2022-07-27T04:14:51.606Z,15.50
2022-07-27T04:17:55.266Z,15.45
2022-07-27T04:20:46.633Z,14.63
2022-07-27T04:23:38.168Z,14.85
2022-07-27T04:26:19.948Z,15.60
2022-07-27T04:29:07.608Z,15.48
2022-07-27T04:31:48.888Z,15.73
2022-07-27T04:34:36.630Z,15.88
2022-07-27T04:37:18.943Z,15.55
2022-07-27T04:40:06.635Z,15.75
2022-07-27T04:42:55.615Z,16.42
2022-07-27T04:45:37.485Z,16.85
2022-07-27T04:48:26.641Z,16.95
2022-07-27T04:51:15.603Z,17.25
2022-07-27T04:54:10.630Z,16.05
2022-07-27T04:56:59.643Z,14.25
2022-07-27T04:59:40.922Z,16.00
2022-07-27T05:02:29.610Z,16.10
2022-07-27T05:05:18.611Z,13.43
2022-07-27T05:08:07.136Z,12.70
2022-07-27T05:10:48.627Z,12.68
2022-07-27T05:13:38.943Z,15.02
2022-07-27T05:16:22.804Z,14.00
2022-07-27T05:19:08.813Z,13.25
2022-07-27T05:21:57.612Z,14.25
2022-07-27T05:24:45.592Z,13.63
2022-07-27T05:27:26.776Z,14.23
2022-07-27T05:30:15.612Z,13.68
2022-07-27T05:32:57.929Z,15.30
2022-07-27T05:35:45.624Z,15.05
2022-07-27T05:38:28.059Z,15.40
2022-07-27T05:41:16.613Z,16.52
2022-07-27T05:43:58.923Z,18.48
2022-07-27T05:46:46.641Z,16.73
2022-07-27T05:49:28.874Z,15.43
2022-07-27T05:52:16.620Z,16.40
2022-07-27T05:55:11.492Z,16.85
2022-07-27T05:57:59.604Z,16.95
2022-07-27T06:00:41.923Z,16.00
2022-07-27T06:03:31.763Z,17.98
2022-07-27T06:06:37.611Z,17.40
2022-07-27T06:09:19.230Z,17.60
2022-07-27T06:12:07.619Z,17.98
2022-07-27T06:14:55.922Z,16.80
2022-07-27T06:17:37.620Z,18.35
2022-07-27T06:20:25.984Z,17.83
2022-07-27T06:23:10.606Z,16.42
2022-07-27T06:25:58.943Z,16.55
2022-07-27T06:28:40.607Z,16.75
2022-07-27T06:31:30.111Z,15.15
2022-07-27T06:34:17.638Z,14.60
2022-07-27T06:37:01.347Z,14.07
2022-07-27T06:39:49.714Z,14.35
2022-07-27T06:42:37.782Z,14.63
2022-07-27T06:45:20.614Z,14.07
2022-07-27T06:50:43.613Z,14.43
2022-07-27T06:53:36.314Z,14.32
2022-07-27T06:56:32.441Z,14.07
2022-07-27T06:59:20.620Z,13.43
2022-07-27T07:02:02.902Z,12.88
2022-07-27T07:04:51.618Z,13.55
2022-07-27T07:07:33.803Z,12.20
2022-07-27T07:10:21.663Z,11.45
2022-07-27T07:13:10.888Z,12.23
2022-07-27T07:15:58.705Z,10.98
2022-07-27T07:18:51.767Z,12.52
2022-07-27T07:21:34.339Z,11.43
2022-07-27T07:24:23.623Z,11.57
2022-07-27T07:27:05.355Z,12.13
2022-07-27T07:29:54.742Z,12.45
2022-07-27T07:32:36.320Z,11.63
2022-07-27T07:35:24.610Z,12.48
2022-07-27T07:38:06.255Z,12.65
2022-07-27T07:40:54.585Z,13.65
2022-07-27T07:43:44.610Z,13.68
2022-07-27T07:46:34.563Z,12.93
2022-07-27T07:49:39.255Z,12.23
2022-07-27T07:52:21.604Z,13.13
2022-07-27T07:55:16.489Z,12.32
2022-07-27T07:58:11.618Z,12.30
2022-07-27T08:00:59.961Z,12.15
2022-07-27T08:03:41.672Z,11.95
2022-07-27T08:06:26.423Z,11.60
2022-07-27T08:09:16.624Z,11.75
2022-07-27T08:12:04.605Z,11.55
2022-07-27T08:14:53.604Z,11.50
2022-07-27T08:17:41.908Z,12.50
2022-07-27T08:20:23.605Z,11.52
2022-07-27T08:23:06.059Z,12.05
2022-07-27T08:25:54.610Z,14.00
2022-07-27T08:28:42.959Z,13.98
2022-07-27T08:31:26.522Z,13.30
2022-07-27T08:34:34.620Z,11.70
2022-07-27T08:37:16.896Z,11.20
2022-07-27T08:43:07.922Z,10.70
2022-07-27T08:46:03.641Z,10.75
2022-07-27T08:48:53.687Z,11.52
2022-07-27T08:51:47.081Z,11.27
2022-07-27T08:54:29.802Z,11.70
2022-07-27T08:57:18.614Z,11.75
2022-07-27T09:00:14.538Z,11.93
2022-07-27T09:03:03.688Z,11.63
2022-07-27T09:05:55.877Z,11.32
2022-07-27T09:08:50.003Z,11.10
2022-07-27T09:11:40.596Z,11.20
2022-07-27T09:14:31.452Z,11.40
2022-07-27T09:17:50.851Z,12.40
2022-07-27T09:20:38.913Z,12.18
2022-07-27T09:23:20.609Z,12.27
2022-07-27T09:26:29.485Z,12.70
2022-07-27T09:29:29.609Z,12.38
2022-07-27T09:32:23.594Z,10.98
2022-07-27T09:35:05.898Z,11.82
2022-07-27T09:37:53.598Z,12.00
2022-07-27T09:40:35.881Z,11.98
2022-07-27T09:46:50.739Z,11.05
2022-07-27T09:49:40.624Z,10.48
2022-07-27T09:52:33.369Z,12.05
2022-07-27T09:55:21.593Z,12.77
2022-07-27T09:58:07.018Z,15.13
2022-07-27T10:01:11.668Z,18.83
2022-07-27T10:03:54.495Z,18.17
2022-07-27T10:07:01.651Z,18.20
2022-07-27T10:09:54.598Z,18.73
2022-07-27T10:12:51.898Z,17.08
2022-07-27T10:15:42.889Z,24.30
2022-07-27T10:18:37.639Z,24.83
2022-07-27T10:21:19.575Z,25.02
2022-07-27T10:24:09.949Z,24.70
2022-07-27T10:26:52.615Z,25.95
2022-07-27T10:29:40.604Z,26.83
2022-07-27T10:32:26.232Z,26.05
2022-07-27T10:35:15.614Z,24.60
2022-07-27T10:38:25.610Z,27.10
2022-07-27T10:41:49.590Z,27.15
2022-07-27T10:44:37.614Z,24.98
2022-07-27T10:47:41.605Z,24.63
2022-07-27T10:50:31.613Z,24.00
2022-07-27T10:53:20.616Z,21.70
2022-07-27T10:56:02.301Z,18.90
2022-07-27T10:58:51.614Z,17.70
2022-07-27T11:01:59.956Z,16.65
2022-07-27T11:04:41.664Z,17.23
2022-07-27T11:07:43.816Z,16.35
2022-07-27T11:10:26.599Z,16.07
2022-07-27T11:13:09.984Z,15.15
2022-07-27T11:19:07.790Z,14.88
2022-07-27T11:21:57.977Z,13.63
2022-07-27T11:24:39.245Z,14.63
2022-07-27T11:27:27.605Z,13.13
2022-07-27T11:30:22.450Z,15.20
2022-07-27T11:33:11.622Z,14.68
2022-07-27T11:35:57.314Z,16.88
2022-07-27T11:39:06.613Z,17.02
2022-07-27T11:42:08.762Z,16.15
2022-07-27T11:44:56.613Z,15.65
2022-07-27T11:47:38.415Z,15.75
2022-07-27T11:50:26.608Z,15.20
2022-07-27T11:53:14.624Z,14.23
2022-07-27T11:56:03.617Z,14.70
2022-07-27T11:59:03.999Z,17.38
2022-07-27T12:01:58.618Z,18.95
2022-07-27T12:04:47.645Z,20.27
2022-07-27T12:07:42.103Z,24.00
2022-07-27T12:10:34.485Z,26.15
2022-07-27T12:13:25.871Z,30.50
2022-07-27T12:16:16.924Z,30.73
2022-07-27T12:19:00.890Z,31.20
2022-07-27T12:22:05.615Z,27.35
2022-07-27T12:24:47.180Z,23.17
2022-07-27T12:27:34.589Z,24.83
2022-07-27T12:30:21.332Z,23.50
2022-07-27T12:33:10.625Z,23.95
2022-07-27T12:35:52.617Z,22.50
2022-07-27T12:38:51.589Z,20.50
2022-07-27T12:41:45.597Z,16.88
2022-07-27T12:44:27.888Z,15.27
2022-07-27T12:47:34.594Z,15.93
2022-07-27T12:50:17.895Z,16.02
2022-07-27T12:53:05.594Z,14.63
2022-07-27T12:55:47.872Z,14.18
2022-07-27T12:58:36.610Z,13.98
2022-07-27T13:01:31.544Z,13.10
2022-07-27T13:04:26.639Z,14.02
2022-07-27T13:07:08.360Z,14.40
2022-07-27T13:10:02.389Z,13.68
2022-07-27T13:12:45.818Z,14.85
2022-07-27T13:15:34.611Z,14.65
2022-07-27T13:18:21.259Z,15.05
2022-07-27T13:21:12.617Z,13.50
2022-07-27T13:24:07.604Z,13.75
2022-07-27T13:26:50.596Z,11.40
2022-07-27T13:29:39.599Z,11.75
2022-07-27T13:32:27.811Z,13.93
2022-07-27T13:35:09.618Z,10.75
2022-07-27T13:37:57.886Z,12.65
2022-07-27T13:40:39.612Z,12.30
2022-07-27T13:43:27.889Z,12.75
2022-07-27T13:46:10.658Z,11.57
2022-07-27T13:48:52.250Z,12.65
2022-07-27T13:51:41.619Z,12.38
2022-07-27T13:54:29.502Z,12.90
2022-07-27T13:57:18.597Z,13.48
2022-07-27T14:00:01.017Z,11.77
2022-07-27T14:02:55.750Z,13.13
2022-07-27T14:05:39.485Z,13.02
2022-07-27T14:08:36.617Z,12.88
2022-07-27T14:11:24.995Z,14.65
2022-07-27T14:14:06.626Z,13.68
2022-07-27T14:16:48.776Z,13.63
2022-07-27T14:19:37.716Z,15.52
2022-07-27T14:22:26.184Z,15.30
2022-07-27T14:25:08.588Z,14.90
2022-07-27T14:27:56.609Z,15.70
2022-07-27T14:30:44.602Z,16.50
2022-07-27T14:33:37.006Z,17.13
2022-07-27T14:36:19.594Z,16.45
2022-07-27T14:39:01.237Z,17.48
2022-07-27T14:41:49.616Z,16.48
2022-07-27T14:44:32.253Z,17.58
2022-07-27T14:47:20.697Z,18.08
2022-07-27T14:50:02.338Z,17.92
2022-07-27T14:52:50.620Z,19.17
2022-07-27T14:55:32.440Z,18.15
2022-07-27T14:58:21.587Z,18.77
2022-07-27T15:01:09.968Z,18.65
2022-07-27T15:03:57.612Z,19.15
2022-07-27T15:06:40.037Z,21.02
2022-07-27T15:09:27.829Z,19.95
2022-07-27T15:12:16.616Z,20.73
2022-07-27T15:14:58.319Z,20.00
2022-07-27T15:17:46.600Z,19.10
2022-07-27T15:20:34.589Z,21.27
2022-07-27T15:23:15.898Z,21.20
2022-07-27T15:26:03.700Z,20.67
2022-07-27T15:28:45.880Z,21.08
2022-07-27T15:31:34.668Z,22.20
2022-07-27T15:34:16.794Z,20.90
2022-07-27T15:37:05.597Z,20.85
2022-07-27T15:39:47.747Z,20.50
2022-07-27T15:42:37.916Z,19.23
2022-07-27T15:45:27.610Z,18.85
2022-07-27T15:48:10.067Z,17.58
2022-07-27T15:51:00.644Z,16.85
2022-07-27T15:53:48.594Z,16.55
2022-07-27T15:56:30.887Z,18.77
2022-07-27T15:59:18.620Z,21.08
2022-07-27T16:02:00.908Z,16.58
2022-07-27T16:04:49.596Z,14.07
2022-07-27T16:07:40.598Z,15.07
2022-07-27T16:10:30.607Z,16.10
2022-07-27T16:13:14.129Z,14.65
2022-07-27T16:16:20.612Z,13.88
2022-07-27T16:19:12.751Z,15.98
2022-07-27T16:22:02.580Z,17.58
2022-07-27T16:24:51.597Z,17.05
2022-07-27T16:27:39.592Z,15.75
2022-07-27T16:30:21.985Z,15.43
2022-07-27T16:33:12.614Z,15.60
2022-07-27T16:35:55.011Z,15.93
2022-07-27T16:38:49.936Z,14.80
2022-07-27T16:41:31.881Z,13.95
2022-07-27T16:44:19.626Z,14.93
2022-07-27T16:47:08.607Z,14.50
2022-07-27T16:49:50.465Z,16.02
2022-07-27T16:52:38.611Z,14.60
2022-07-27T16:55:20.347Z,15.30
2022-07-27T16:58:12.588Z,16.42
2022-07-27T17:00:54.909Z,16.20
2022-07-27T17:03:43.614Z,16.00
2022-07-27T17:06:39.568Z,15.38
2022-07-27T17:09:21.222Z,15.93
2022-07-27T17:12:10.581Z,16.52
2022-07-27T17:14:52.304Z,17.67
2022-07-27T17:17:41.618Z,17.70
2022-07-27T17:20:34.975Z,16.90
2022-07-27T17:23:19.604Z,16.80
2022-07-27T17:26:01.240Z,17.48
2022-07-27T17:28:50.589Z,17.98
2022-07-27T17:31:32.567Z,17.70
2022-07-27T17:34:21.592Z,17.45
2022-07-27T17:37:09.866Z,17.60
2022-07-27T17:39:51.580Z,18.42
2022-07-27T17:42:33.469Z,17.85
2022-07-27T17:45:22.590Z,17.02
2022-07-27T17:48:04.513Z,18.13
2022-07-27T17:50:53.587Z,17.95
2022-07-27T17:54:35.800Z,17.88
2022-07-27T17:57:18.374Z,18.85
2022-07-27T18:00:06.802Z,18.17
2022-07-27T18:02:58.944Z,18.35
2022-07-27T18:05:41.471Z,16.25
2022-07-27T18:08:30.840Z,18.38
2022-07-27T18:11:22.799Z,19.00
2022-07-27T18:14:11.804Z,18.65
2022-07-27T18:16:54.289Z,18.48
2022-07-27T18:19:42.781Z,17.42
2022-07-27T18:22:35.347Z,19.08
2022-07-27T18:25:26.849Z,18.50
2022-07-27T18:28:09.266Z,17.98
2022-07-27T18:30:59.837Z,17.10
2022-07-27T18:33:53.797Z,17.88
2022-07-27T18:36:37.563Z,17.98
2022-07-27T18:39:32.225Z,18.30
2022-07-27T18:42:22.002Z,18.05
2022-07-27T18:45:03.781Z,17.13
2022-07-27T18:47:52.800Z,18.70
2022-07-27T18:50:39.165Z,18.52
2022-07-27T18:53:35.784Z,17.17
2022-07-27T18:56:24.795Z,16.75
2022-07-27T18:59:06.987Z,18.55
2022-07-27T19:01:55.867Z,18.52
2022-07-27T19:04:38.151Z,18.45
2022-07-27T19:07:29.819Z,18.75
2022-07-27T19:10:15.329Z,18.48
2022-07-27T19:13:03.800Z,19.65
2022-07-27T19:15:52.815Z,18.38
2022-07-27T19:18:35.183Z,19.23
2022-07-27T19:21:24.797Z,18.92
2022-07-27T19:24:14.616Z,19.60
2022-07-27T19:26:57.831Z,20.85
2022-07-27T19:29:47.159Z,18.65
2022-07-27T19:32:30.792Z,16.13
2022-07-27T19:35:20.286Z,17.00
2022-07-27T19:38:02.758Z,17.73
2022-07-27T19:40:51.034Z,18.85
2022-07-27T19:43:33.760Z,17.83
2022-07-27T19:46:16.348Z,17.98
2022-07-27T19:49:05.868Z,18.48
2022-07-27T19:51:54.147Z,17.25
2022-07-27T19:54:48.812Z,19.02
2022-07-27T19:57:37.072Z,16.92
2022-07-27T20:00:19.828Z,17.40
2022-07-27T20:03:08.853Z,18.13
2022-07-27T20:05:51.285Z,16.73
2022-07-27T20:08:39.776Z,17.80
2022-07-27T20:11:22.066Z,17.33
2022-07-27T20:14:10.800Z,17.77
2022-07-27T20:16:53.057Z,18.02
2022-07-27T20:19:41.809Z,17.13
2022-07-27T20:22:24.068Z,18.15
2022-07-27T20:25:15.813Z,16.92
2022-07-27T20:27:59.094Z,17.13
2022-07-27T20:30:47.845Z,17.88
2022-07-27T20:33:36.799Z,17.58
2022-07-27T20:36:18.979Z,17.30
2022-07-27T20:39:07.804Z,17.15
2022-07-27T20:41:58.077Z,18.15
2022-07-27T20:44:40.792Z,17.52
2022-07-27T20:47:22.802Z,16.80
2022-07-27T20:50:11.774Z,16.92
2022-07-27T20:52:53.999Z,18.52
2022-07-27T20:55:50.829Z,18.08
2022-07-27T20:58:33.473Z,18.10
2022-07-27T21:01:15.820Z,17.77
2022-07-27T21:04:04.770Z,18.20
2022-07-27T21:06:53.817Z,16.90
2022-07-27T21:09:42.797Z,17.75
2022-07-27T21:12:24.823Z,17.75
2022-07-27T21:15:13.853Z,19.02
2022-07-27T21:17:55.884Z,18.20
2022-07-27T21:20:44.791Z,17.38
2022-07-27T21:23:51.280Z,16.92
2022-07-27T21:26:32.807Z,17.15
2022-07-27T21:29:15.685Z,19.33
2022-07-27T21:32:05.803Z,17.95
2022-07-27T21:34:54.093Z,20.15
2022-07-27T21:37:37.908Z,19.38
2022-07-27T21:40:20.139Z,17.73
2022-07-27T21:43:08.793Z,18.52
2022-07-27T21:45:50.982Z,19.02
2022-07-27T21:48:40.820Z,18.67
2022-07-27T21:51:22.965Z,19.35
2022-07-27T21:54:12.061Z,19.15
2022-07-27T21:57:06.808Z,18.80
2022-07-27T21:59:55.090Z,17.60
2022-07-27T22:02:39.787Z,19.02
2022-07-27T22:05:23.770Z,19.40
2022-07-27T22:08:12.841Z,19.48
2022-07-27T22:10:55.036Z,18.85
2022-07-27T22:13:43.777Z,19.13
2022-07-27T22:16:32.873Z,19.52
2022-07-27T22:19:15.293Z,20.85
2022-07-27T22:22:04.827Z,20.67
2022-07-27T22:24:47.276Z,19.33
2022-07-27T22:27:35.790Z,21.23
2022-07-27T22:30:18.541Z,20.50
2022-07-27T22:33:08.813Z,20.77
2022-07-27T22:35:51.118Z,21.20
2022-07-27T22:38:39.791Z,22.17
2022-07-27T22:41:21.946Z,21.67
2022-07-27T22:44:10.873Z,21.65
2022-07-27T22:46:52.982Z,21.85
2022-07-27T22:49:44.793Z,22.40
2022-07-27T22:52:27.230Z,21.52
2022-07-27T22:55:16.822Z,22.48
2022-07-27T22:58:14.647Z,23.13
2022-07-27T23:01:03.816Z,21.35
2022-07-27T23:03:46.063Z,23.27
2022-07-27T23:06:34.814Z,23.45
2022-07-27T23:09:17.092Z,22.92
2022-07-27T23:12:05.821Z,21.80
2022-07-27T23:14:49.137Z,24.17
2022-07-27T23:17:37.792Z,24.08
2022-07-27T23:20:20.109Z,25.08
2022-07-27T23:23:15.828Z,26.13
2022-07-27T23:26:05.773Z,25.48
2022-07-27T23:28:48.950Z,24.42
2022-07-27T23:31:37.869Z,26.70
2022-07-27T23:34:19.783Z,25.98
2022-07-27T23:37:08.791Z,25.15
2022-07-27T23:39:57.781Z,24.90
2022-07-27T23:42:40.204Z,24.00
2022-07-27T23:45:28.779Z,25.05
2022-07-27T23:48:17.785Z,24.67
2022-07-27T23:51:00.990Z,23.35
2022-07-27T23:53:49.805Z,24.35
2022-07-27T23:56:44.632Z,24.67
2022-07-27T23:59:39.767Z,25.92
